createdAt,value
2018-04-17T00:00:48.289Z,5.73
2018-04-17T00:03:15.782Z,3.80
2018-04-17T00:05:43.285Z,4.33
2018-04-17T00:08:10.770Z,4.73
2018-04-17T00:10:39.903Z,4.20
2018-04-17T00:13:08.055Z,4.30
2018-04-17T00:15:36.671Z,4.10
2018-04-17T00:18:05.519Z,5.20
2018-04-17T00:20:33.014Z,4.83
2018-04-17T00:23:00.494Z,4.87
2018-04-17T00:25:28.014Z,4.70
2018-04-17T00:27:56.658Z,5.17
2018-04-17T00:30:27.121Z,4.00
2018-04-17T00:32:55.821Z,4.40
2018-04-17T00:35:24.466Z,5.03
2018-04-17T00:37:51.980Z,5.33
2018-04-17T00:40:19.488Z,4.67
2018-04-17T00:42:46.973Z,4.30
2018-04-17T00:45:18.864Z,4.93
2018-04-17T00:47:50.881Z,5.00
2018-04-17T00:50:22.749Z,4.93
2018-04-17T00:52:54.619Z,5.80
2018-04-17T00:55:22.107Z,5.47
2018-04-17T00:57:49.565Z,4.50
2018-04-17T01:00:17.077Z,5.27
2018-04-17T01:02:44.581Z,5.13
2018-04-17T01:05:12.063Z,4.60
2018-04-17T01:07:51.996Z,4.40
2018-04-17T01:10:20.236Z,4.93
2018-04-17T01:12:47.726Z,5.80
2018-04-17T01:15:15.239Z,4.73
2018-04-17T01:17:42.738Z,4.40
2018-04-17T01:20:11.190Z,4.93
2018-04-17T01:22:39.794Z,5.07
2018-04-17T01:25:08.614Z,5.07
2018-04-17T01:30:07.982Z,4.00
2018-04-17T01:32:35.474Z,4.90
2018-04-17T01:35:02.946Z,4.23
2018-04-17T01:37:36.465Z,4.93
2018-04-17T01:40:06.818Z,4.63
2018-04-17T01:42:38.459Z,5.13
2018-04-17T01:45:10.263Z,4.50
2018-04-17T01:47:37.749Z,4.47
2018-04-17T01:50:05.250Z,5.00
2018-04-17T01:52:32.758Z,5.43
2018-04-17T01:55:00.487Z,4.97
2018-04-17T02:00:03.475Z,4.77
2018-04-17T02:02:36.298Z,4.00
2018-04-17T02:05:03.818Z,4.57
2018-04-17T02:07:31.284Z,4.67
2018-04-17T02:09:58.778Z,5.13
2018-04-17T02:12:27.590Z,5.07
2018-04-17T02:15:00.523Z,4.37
2018-04-17T02:17:30.725Z,4.07
2018-04-17T02:20:02.850Z,5.13
2018-04-17T02:22:30.350Z,4.13
2018-04-17T02:24:57.846Z,4.40
2018-04-17T02:27:25.367Z,5.00
2018-04-17T02:29:54.174Z,4.30
2018-04-17T02:35:34.156Z,4.43
2018-04-17T02:38:01.662Z,4.93
2018-04-17T02:40:29.223Z,4.00
2018-04-17T02:42:56.743Z,4.73
2018-04-17T02:45:24.280Z,4.33
2018-04-17T02:47:55.551Z,4.70
2018-04-17T02:50:39.094Z,5.53
2018-04-17T02:53:18.012Z,3.93
2018-04-17T02:55:47.814Z,4.13
2018-04-17T02:58:15.352Z,4.50
2018-04-17T03:00:42.866Z,3.50
2018-04-17T03:03:10.459Z,3.13
2018-04-17T03:05:51.203Z,3.90
2018-04-17T03:14:03.225Z,4.67
2018-04-17T03:16:30.760Z,3.67
2018-04-17T03:18:58.376Z,3.90
2018-04-17T03:21:30.485Z,4.30
2018-04-17T03:30:04.947Z,3.60
2018-04-17T03:32:33.335Z,3.70
2018-04-17T03:35:00.902Z,3.70
2018-04-17T03:37:28.535Z,3.40
2018-04-17T03:40:18.380Z,3.57
2018-04-17T03:45:35.070Z,3.33
2018-04-17T03:48:02.608Z,3.07
2018-04-17T03:50:30.110Z,3.43
2018-04-17T03:52:57.590Z,4.70
2018-04-17T03:55:25.696Z,2.97
2018-04-17T04:04:25.538Z,3.53
2018-04-17T04:06:53.068Z,3.83
2018-04-17T04:09:20.575Z,4.20
2018-04-17T04:11:48.192Z,2.97
2018-04-17T04:21:50.674Z,4.10
2018-04-17T04:24:30.151Z,3.90
2018-04-17T04:26:57.699Z,3.40
2018-04-17T04:29:25.314Z,3.13
2018-04-17T04:34:49.173Z,3.77
2018-04-17T04:37:26.525Z,3.30
2018-04-17T04:39:54.083Z,3.73
2018-04-17T04:42:21.627Z,4.17
2018-04-17T04:44:49.149Z,2.87
2018-04-17T04:56:03.815Z,3.43
2018-04-17T04:58:31.331Z,3.17
2018-04-17T05:00:58.871Z,3.40
2018-04-17T05:03:26.516Z,3.17
2018-04-17T05:10:34.927Z,3.70
2018-04-17T05:15:50.731Z,3.20
2018-04-17T05:18:21.297Z,3.27
2018-04-17T05:20:48.835Z,3.87
2018-04-17T05:33:53.778Z,3.90
2018-04-17T05:36:21.295Z,3.70
2018-04-17T05:38:48.878Z,3.80
2018-04-17T05:41:42.873Z,3.07
2018-04-17T05:47:32.043Z,3.17
2018-04-17T05:49:59.572Z,2.90
2018-04-17T05:52:27.176Z,3.67
2018-04-17T05:54:54.967Z,4.10
2018-04-17T05:57:22.627Z,3.60
2018-04-17T05:59:51.167Z,3.40
2018-04-17T06:02:27.117Z,3.43
2018-04-17T06:07:44.221Z,4.17
2018-04-17T06:10:11.740Z,3.60
2018-04-17T06:12:39.301Z,2.53
2018-04-17T06:20:17.066Z,3.03
2018-04-17T06:25:25.798Z,4.17
2018-04-17T06:27:53.307Z,3.53
2018-04-17T06:30:20.799Z,3.63
2018-04-17T06:32:51.155Z,3.87
2018-04-17T06:35:25.095Z,3.30
2018-04-17T06:37:52.658Z,3.87
2018-04-17T06:42:53.721Z,3.57
2018-04-17T06:45:21.247Z,3.60
2018-04-17T06:47:48.751Z,3.70
2018-04-17T06:50:16.328Z,3.93
2018-04-17T06:52:47.424Z,3.43
2018-04-17T06:58:44.790Z,3.77
2018-04-17T07:01:12.308Z,3.47
2018-04-17T07:03:39.794Z,3.90
2018-04-17T07:06:07.287Z,4.07
2018-04-17T07:13:47.846Z,3.53
2018-04-17T07:16:15.454Z,4.80
2018-04-17T07:18:42.942Z,4.73
2018-04-17T07:21:10.567Z,3.77
2018-04-17T07:23:38.067Z,4.40
2018-04-17T07:26:07.238Z,3.83
2018-04-17T07:28:34.770Z,4.07
2018-04-17T07:31:06.332Z,3.50
2018-04-17T07:33:33.826Z,3.73
2018-04-17T07:36:01.331Z,3.63
2018-04-17T07:38:28.923Z,4.43
2018-04-17T07:40:56.550Z,3.70
2018-04-17T07:43:43.244Z,4.67
2018-04-17T07:46:20.093Z,3.60
2018-04-17T07:48:54.647Z,3.67
2018-04-17T07:51:22.130Z,4.10
2018-04-17T07:53:49.660Z,4.07
2018-04-17T07:56:17.202Z,4.17
2018-04-17T07:58:45.455Z,4.00
2018-04-17T08:01:13.070Z,4.90
2018-04-17T08:03:43.124Z,3.77
2018-04-17T08:06:12.623Z,4.20
2018-04-17T08:08:40.121Z,3.60
2018-04-17T08:11:07.654Z,4.40
2018-04-17T08:13:35.231Z,4.50
2018-04-17T08:16:02.830Z,3.83
2018-04-17T08:24:27.584Z,4.20
2018-04-17T08:26:55.164Z,4.33
2018-04-17T08:29:22.692Z,4.53
2018-04-17T08:31:50.338Z,4.20
2018-04-17T08:43:02.561Z,3.77
2018-04-17T08:45:30.125Z,3.13
2018-04-17T08:47:58.506Z,3.30
2018-04-17T08:59:32.366Z,3.80
2018-04-17T09:02:00.039Z,3.97
2018-04-17T09:04:27.699Z,3.83
2018-04-17T09:06:56.600Z,4.43
2018-04-17T09:18:33.287Z,3.87
2018-04-17T09:21:02.777Z,4.03
2018-04-17T09:23:30.353Z,3.77
2018-04-17T09:35:18.156Z,3.50
2018-04-17T09:37:46.762Z,3.50
2018-04-17T09:40:14.349Z,3.53
2018-04-17T09:51:51.972Z,3.13
2018-04-17T09:54:19.551Z,3.40
2018-04-17T09:56:47.165Z,2.67
2018-04-17T10:08:23.647Z,2.63
2018-04-17T10:10:51.252Z,2.23
2018-04-17T10:13:18.835Z,2.80
2018-04-17T10:24:56.771Z,3.80
2018-04-17T10:27:24.381Z,2.63
2018-04-17T10:29:52.063Z,3.57
2018-04-17T10:41:46.477Z,2.70
2018-04-17T10:44:14.059Z,2.83
2018-04-17T10:46:41.703Z,3.00
2018-04-17T10:49:12.273Z,3.20
2018-04-17T11:00:49.071Z,2.77
2018-04-17T11:03:16.663Z,2.77
2018-04-17T11:05:44.229Z,2.90
2018-04-17T11:17:20.649Z,2.60
2018-04-17T11:19:48.232Z,2.60
2018-04-17T11:22:15.871Z,2.60
2018-04-17T11:36:40.406Z,3.63
2018-04-17T11:39:15.154Z,3.40
2018-04-17T12:09:21.548Z,4.20
2018-04-17T13:02:14.211Z,4.40
2018-04-17T14:26:37.385Z,3.13
2018-04-17T15:50:28.992Z,3.67
2018-04-17T15:52:58.250Z,3.67
2018-04-17T15:55:28.326Z,3.33
2018-04-17T16:10:27.461Z,4.20
2018-04-17T16:12:55.153Z,4.23
2018-04-17T16:24:30.941Z,4.27
2018-04-17T16:26:58.649Z,3.90
2018-04-17T16:29:26.359Z,3.80
2018-04-17T16:58:55.677Z,5.00
2018-04-17T20:58:03.291Z,10.40
2018-04-17T21:00:30.843Z,11.03
2018-04-17T21:02:59.447Z,11.57
2018-04-17T21:05:32.144Z,11.53
2018-04-17T21:08:12.385Z,9.93
2018-04-17T21:10:41.113Z,11.00
2018-04-17T21:13:08.804Z,10.83
2018-04-17T21:15:36.339Z,9.73
2018-04-17T21:18:04.015Z,10.50
2018-04-17T21:20:31.640Z,11.53
2018-04-17T21:26:01.958Z,10.27
2018-04-17T21:28:31.377Z,12.23
2018-04-17T21:30:58.963Z,10.47
2018-04-17T21:33:26.507Z,11.87
2018-04-17T21:35:54.079Z,11.40
2018-04-17T21:38:21.667Z,11.97
2018-04-17T21:43:28.717Z,11.47
2018-04-17T21:48:30.576Z,12.53
2018-04-17T21:50:58.206Z,13.10
2018-04-17T21:53:25.756Z,11.43
2018-04-17T21:55:53.704Z,10.93
2018-04-17T21:58:23.213Z,11.87
2018-04-17T22:00:53.290Z,11.73
2018-04-17T22:06:33.007Z,10.80
2018-04-17T22:09:00.556Z,11.60
2018-04-17T22:11:28.169Z,11.97
2018-04-17T22:13:59.178Z,10.93
2018-04-17T22:16:31.156Z,12.10
2018-04-17T22:21:36.095Z,12.17
2018-04-17T22:24:03.711Z,11.40
2018-04-17T22:26:32.373Z,11.53
2018-04-17T22:28:59.929Z,12.37
2018-04-17T22:31:36.129Z,12.60
2018-04-17T22:37:17.084Z,11.40
2018-04-17T22:39:44.654Z,10.97
2018-04-17T22:42:12.183Z,11.87
2018-04-17T22:44:39.770Z,10.70
2018-04-17T22:47:07.436Z,10.63
2018-04-17T22:49:39.016Z,10.07
2018-04-17T22:52:11.066Z,9.93
2018-04-17T22:54:43.372Z,10.00
2018-04-17T22:57:11.075Z,9.33
2018-04-17T22:59:38.643Z,10.03
2018-04-17T23:02:06.217Z,10.17
2018-04-17T23:04:33.751Z,9.43
2018-04-17T23:15:47.829Z,6.80
2018-04-17T23:18:15.501Z,6.10
2018-04-17T23:20:43.078Z,6.53
2018-04-17T23:31:12.247Z,6.13
2018-04-17T23:33:39.907Z,6.20
2018-04-17T23:36:07.455Z,5.70
2018-04-17T23:38:35.032Z,6.50
2018-04-17T23:43:56.369Z,5.53
2018-04-17T23:49:12.058Z,5.50
2018-04-17T23:51:39.623Z,5.03
2018-04-17T23:54:07.205Z,5.10
2018-04-17T23:56:35.813Z,5.00
